createdAt,value
2017-09-18T00:00:03.557Z,9.8
2017-09-18T00:15:03.741Z,9.8
2017-09-18T00:30:04.766Z,9.8
2017-09-18T00:45:03.101Z,9.7
2017-09-18T01:00:03.910Z,9.7
2017-09-18T01:15:02.752Z,9.7
2017-09-18T01:30:06.871Z,9.6
2017-09-18T01:45:03.594Z,9.6
2017-09-18T02:00:11.583Z,9.6
2017-09-18T02:15:03.710Z,9.6
2017-09-18T02:30:04.831Z,9.6
2017-09-18T02:45:03.584Z,9.6
2017-09-18T03:00:04.206Z,9.6
2017-09-18T03:15:03.351Z,9.6
2017-09-18T03:30:04.214Z,9.5
2017-09-18T03:45:03.815Z,9.5
2017-09-18T04:00:05.662Z,9.5
2017-09-18T04:15:03.225Z,9.5
2017-09-18T04:30:03.211Z,9.5
2017-09-18T04:45:04.341Z,9.5
2017-09-18T05:00:04.609Z,9.5
2017-09-18T05:15:03.486Z,9.5
2017-09-18T05:30:04.462Z,9.5
2017-09-18T05:45:03.390Z,9.5
2017-09-18T06:00:11.283Z,9.5
2017-09-18T06:15:04.511Z,9.5
2017-09-18T06:30:04.225Z,9.5
2017-09-18T06:45:03.062Z,9.5
2017-09-18T07:00:05.819Z,9.6
2017-09-18T07:15:03.926Z,9.6
2017-09-18T07:30:02.970Z,9.6
2017-09-18T07:45:04.784Z,9.6
2017-09-18T08:00:03.456Z,9.6
2017-09-18T08:15:03.021Z,9.6
2017-09-18T08:30:03.377Z,9.6
2017-09-18T08:45:03.202Z,9.7
2017-09-18T09:00:03.682Z,9.7
2017-09-18T09:15:03.327Z,9.8
2017-09-18T09:30:03.450Z,9.8
2017-09-18T09:45:03.667Z,9.8
2017-09-18T10:00:05.690Z,9.8
2017-09-18T10:15:03.850Z,9.8
2017-09-18T10:30:02.763Z,9.9
2017-09-18T10:45:08.330Z,9.9
2017-09-18T11:00:06.287Z,9.9
2017-09-18T11:15:04.523Z,10
2017-09-18T11:30:05.895Z,10
2017-09-18T11:45:03.600Z,10.1
2017-09-18T12:00:04.277Z,10.1
2017-09-18T12:15:03.769Z,10.1
2017-09-18T12:30:03.879Z,10.2
2017-09-18T12:45:03.823Z,10.2
2017-09-18T13:00:06.285Z,10.2
2017-09-18T13:15:04.489Z,10.2
2017-09-18T13:30:06.178Z,10.2
2017-09-18T13:45:07.193Z,10.2
2017-09-18T14:00:09.043Z,10.2
2017-09-18T14:15:03.437Z,10.3
2017-09-18T14:30:04.940Z,10.3
2017-09-18T14:45:02.752Z,10.3
2017-09-18T15:00:04.372Z,10.3
2017-09-18T15:15:03.090Z,10.4
2017-09-18T15:30:02.971Z,10.4
2017-09-18T15:45:02.686Z,10.4
2017-09-18T16:00:04.128Z,10.4
2017-09-18T16:15:03.039Z,10.4
2017-09-18T16:30:03.732Z,10.4
2017-09-18T16:45:03.677Z,10.4
2017-09-18T17:00:04.127Z,10.3
2017-09-18T17:15:03.060Z,10.3
2017-09-18T17:30:03.583Z,10.2
2017-09-18T17:45:03.839Z,10.2
2017-09-18T18:00:03.620Z,10.2
2017-09-18T18:15:03.770Z,10.2
2017-09-18T18:30:05.117Z,10.1
2017-09-18T18:45:02.806Z,10.1
2017-09-18T19:00:04.266Z,10.1
2017-09-18T19:15:03.736Z,10.1
2017-09-18T19:30:04.078Z,10.1
2017-09-18T19:45:03.254Z,10.1
2017-09-18T20:00:04.020Z,10
2017-09-18T20:15:03.054Z,10
2017-09-18T20:30:02.982Z,9.9
2017-09-18T20:45:02.586Z,9.9
2017-09-18T21:00:03.905Z,9.9
2017-09-18T21:15:02.887Z,9.9
2017-09-18T21:30:02.737Z,9.8
2017-09-18T21:45:03.670Z,9.8
2017-09-18T22:00:03.953Z,9.8
2017-09-18T22:15:02.819Z,9.8
2017-09-18T22:30:04.976Z,9.8
2017-09-18T22:45:03.295Z,9.7
2017-09-18T23:00:03.396Z,9.7
2017-09-18T23:15:03.822Z,9.6
2017-09-18T23:30:04.552Z,9.6
2017-09-18T23:45:04.042Z,9.6
